• Join FlightAware (Why Join?)
  • Login
  • US Flag 
08:59PM EDT


 

Airport Tracker/Info


-or-


 

Live Flight TrackerFlight Track Log ✈ SKW4540 ✈ 30-Sep-2013 ✈ KMSP - KRST

Flight Track Log - Related Links

Times and Time Zones

All times are in EDT time to prevent confusion due to time zone crossing. See the SKW4540 flight status page for this flight to view local times or setup timezone preferences in your user account.

Time Position Orientation Groundspeed Altitude Reporting Facility
EDT Latitude Longitude Course Direction KTS MPH feet Rate Location/Type
12:45PM 44.8333 -93.2167 153° Southeast 159 183 2,700  Level Minneapolis TRACON
12:46PM 44.8000 -93.1667 133° Southeast 218 251 5,500 2,100 Climbing Minneapolis TRACON
12:47PM 44.7333 -93.1167 152° Southeast 264 304 7,000 1,680 Climbing Minneapolis TRACON
12:48PM 44.5169 -92.9480 150° Southeast  Level Estimated
12:48PM 44.6833 -93.0500 137° Southeast 277 319 8,900  Level Minneapolis TRACON
12:49PM 44.4255 -92.8800 154° Southeast  Level Estimated
12:49PM 44.6000 -93.0333 172° South 262 302 10,000  Level Minneapolis TRACON
12:50PM 44.3341 -92.8123 153° Southeast  Level Estimated
12:50PM 44.5333 -93.0167 170° South 241 277 10,000  Level Minneapolis TRACON
12:51PM 44.4344 -92.9831 166° South 271 312 13,000 1,140 Climbing Minneapolis Center
12:52PM 44.3658 -92.9186 146° Southeast 296 341 12,900  Descending Minneapolis Center
12:54PM 44.3017 -92.8597 147° Southeast 281 323 13,000 -420 Climbing Minneapolis Center
12:55PM 44.2375 -92.8006 147° Southeast 278 320 12,100 -1,140 Descending Minneapolis Center
12:56PM 44.1756 -92.7461 148° Southeast 269 310 10,700 -1,860 Descending Minneapolis Center
12:57PM 44.1056 -92.6806 146° Southeast 264 304 8,300 -2,520 Descending Minneapolis Center
12:58PM 44.0369 -92.6175 147° Southeast 275 316 5,600 -2,280 Descending Minneapolis Center
12:59PM 44.0153 -92.5222 108° East 261 300 3,700 -1,260 Descending Minneapolis Center
01:00PM 43.9917 -92.4556 116° Southeast 186 214 3,100 -720 Descending Minneapolis Center
01:01PM 43.9583 -92.4636 190° South 116 133 2,300 -720 Descending Minneapolis Center
01:02PM 43.9286 -92.4839 206° Southwest 110 127 1,700 -540 Descending Minneapolis Center
01:03PM 43.9022 -92.5014 206° Southwest 112 129 1,300 -420 Descending Minneapolis Center